createdAt,value
2023-03-20T00:01:36.264Z,63
2023-03-20T00:03:19.965Z,63
2023-03-20T00:05:03.666Z,63
2023-03-20T00:06:47.364Z,63.1
2023-03-20T00:08:31.099Z,63
2023-03-20T00:10:14.790Z,63.1
2023-03-20T00:11:58.486Z,63.1
2023-03-20T00:13:42.184Z,63.1
2023-03-20T00:15:25.877Z,63.1
2023-03-20T00:17:09.614Z,63.1
2023-03-20T00:18:53.286Z,63.1
2023-03-20T00:20:37.036Z,63.1
2023-03-20T00:22:20.751Z,63.2
2023-03-20T00:24:04.404Z,63.2
2023-03-20T00:25:48.099Z,63.2
2023-03-20T00:27:31.825Z,63.2
2023-03-20T00:29:15.509Z,63.2
2023-03-20T00:30:59.220Z,63.2
2023-03-20T00:32:42.902Z,63.2
2023-03-20T00:34:26.607Z,63.2
2023-03-20T00:36:10.310Z,63.2
2023-03-20T00:39:37.740Z,63.2
2023-03-20T00:41:21.452Z,63.2
2023-03-20T00:43:05.143Z,63.2
2023-03-20T00:44:48.850Z,63.3
2023-03-20T00:46:32.526Z,63.2
2023-03-20T00:48:16.258Z,63.2
2023-03-20T00:50:00.059Z,63.2
2023-03-20T00:51:43.629Z,63.2
2023-03-20T00:53:27.338Z,63.2
2023-03-20T00:55:11.055Z,63.2
2023-03-20T00:56:54.725Z,63.3
2023-03-20T00:58:38.463Z,63.3
2023-03-20T01:00:22.150Z,63.3
2023-03-20T01:02:05.851Z,63.3
2023-03-20T01:03:49.574Z,63.3
2023-03-20T01:05:33.248Z,63.3
2023-03-20T01:07:16.965Z,63.3
2023-03-20T01:10:44.348Z,63.3
2023-03-20T01:12:28.063Z,63.3
2023-03-20T01:14:11.775Z,63.3
2023-03-20T01:15:55.467Z,63.3
2023-03-20T01:17:39.180Z,63.3
2023-03-20T01:19:22.880Z,63.3
2023-03-20T01:21:06.575Z,63.3
2023-03-20T01:24:34.030Z,63.3
2023-03-20T01:26:17.684Z,63.3
2023-03-20T01:28:01.398Z,63.3
2023-03-20T01:29:45.094Z,63.3
2023-03-20T01:31:28.795Z,63.3
2023-03-20T01:33:12.557Z,63.3
2023-03-20T01:34:56.195Z,63.3
2023-03-20T01:36:39.892Z,63.3
2023-03-20T01:38:23.599Z,63.3
2023-03-20T01:40:07.296Z,63.3
2023-03-20T01:41:51.002Z,63.3
2023-03-20T01:43:34.711Z,63.3
2023-03-20T01:45:18.424Z,63.3
2023-03-20T01:47:02.144Z,63.3
2023-03-20T01:48:45.815Z,63.3
2023-03-20T01:50:29.521Z,63.3
2023-03-20T01:52:13.223Z,63.3
2023-03-20T01:53:56.922Z,63.3
2023-03-20T01:55:40.628Z,63.3
2023-03-20T01:59:08.033Z,63.3
2023-03-20T02:00:51.739Z,63.3
2023-03-20T02:04:19.127Z,63.3
2023-03-20T02:06:02.857Z,63.3
2023-03-20T02:07:46.549Z,63.3
2023-03-20T02:09:30.250Z,63.3
2023-03-20T02:11:13.945Z,63.3
2023-03-20T02:12:57.645Z,63.3
2023-03-20T02:14:41.355Z,63.2
2023-03-20T02:16:25.061Z,63.3
2023-03-20T02:18:08.752Z,63.3
2023-03-20T02:19:52.451Z,63.3
2023-03-20T02:21:36.192Z,63.1
2023-03-20T02:23:19.864Z,62.9
2023-03-20T02:25:03.562Z,63.2
2023-03-20T02:26:47.267Z,63.3
2023-03-20T02:28:30.968Z,63.3
2023-03-20T02:30:14.680Z,63.2
2023-03-20T02:31:58.376Z,63.2
2023-03-20T02:33:42.084Z,63.2
2023-03-20T02:35:25.782Z,63.2
2023-03-20T02:37:09.475Z,63.2
2023-03-20T02:38:53.182Z,63.2
2023-03-20T02:40:36.884Z,63.2
2023-03-20T02:42:20.626Z,63.2
2023-03-20T02:44:04.342Z,63.1
2023-03-20T02:45:47.980Z,63.1
2023-03-20T02:47:31.690Z,63.1
2023-03-20T02:49:15.392Z,63.1
2023-03-20T02:50:59.083Z,63.1
2023-03-20T02:52:42.801Z,63.1
2023-03-20T02:54:26.511Z,63.2
2023-03-20T02:56:10.215Z,63.1
2023-03-20T02:57:53.912Z,63.2
2023-03-20T02:59:37.615Z,63.1
2023-03-20T03:01:21.302Z,63.1
2023-03-20T03:03:05.019Z,63.2
2023-03-20T03:04:48.760Z,63.1
2023-03-20T03:06:32.417Z,63.1
2023-03-20T03:08:16.125Z,63.1
2023-03-20T03:09:59.839Z,63.1
2023-03-20T03:11:43.531Z,63.1
2023-03-20T03:13:27.250Z,63.1
2023-03-20T03:15:10.933Z,63.1
2023-03-20T03:16:54.641Z,63.1
2023-03-20T03:18:38.344Z,63.1
2023-03-20T03:20:22.053Z,63.1
2023-03-20T03:22:05.748Z,63.1
2023-03-20T03:23:49.449Z,63.1
2023-03-20T03:25:33.150Z,63.1
2023-03-20T03:27:16.854Z,63.1
2023-03-20T03:29:00.675Z,63.1
2023-03-20T03:30:44.259Z,63.1
2023-03-20T03:32:27.964Z,63.1
2023-03-20T03:34:11.661Z,63.1
2023-03-20T03:35:55.367Z,63.1
2023-03-20T03:37:39.093Z,63.1
2023-03-20T03:39:22.765Z,63.1
2023-03-20T03:41:06.505Z,63
2023-03-20T03:42:50.183Z,63
2023-03-20T03:44:33.879Z,63
2023-03-20T03:46:17.582Z,63
2023-03-20T03:48:01.297Z,63
2023-03-20T03:49:44.985Z,63
2023-03-20T03:51:28.689Z,63
2023-03-20T03:53:12.410Z,63
2023-03-20T03:54:56.099Z,63
2023-03-20T03:56:39.816Z,63
2023-03-20T03:58:23.516Z,63
2023-03-20T04:00:07.203Z,63
2023-03-20T04:01:50.916Z,63
2023-03-20T04:03:34.621Z,63
2023-03-20T04:05:18.316Z,63
2023-03-20T04:07:02.015Z,63
2023-03-20T04:08:45.727Z,63
2023-03-20T04:10:29.421Z,63
2023-03-20T04:12:13.124Z,63
2023-03-20T04:13:56.827Z,63
2023-03-20T04:15:40.531Z,62.9
2023-03-20T04:17:24.231Z,63
2023-03-20T04:19:07.943Z,63
2023-03-20T04:22:35.350Z,62.9
2023-03-20T04:24:19.056Z,63
2023-03-20T04:26:02.749Z,63
2023-03-20T04:27:46.438Z,63
2023-03-20T04:29:30.149Z,62.9
2023-03-20T04:31:13.856Z,62.9
2023-03-20T04:32:57.557Z,62.9
2023-03-20T04:34:41.263Z,62.9
2023-03-20T04:36:24.961Z,62.9
2023-03-20T04:38:08.669Z,62.9
2023-03-20T04:39:52.368Z,62.9
2023-03-20T04:41:36.057Z,62.9
2023-03-20T04:43:19.767Z,62.9
2023-03-20T04:45:03.481Z,62.9
2023-03-20T04:46:47.171Z,62.9
2023-03-20T04:48:30.881Z,62.9
2023-03-20T04:50:14.579Z,62.9
2023-03-20T04:51:58.318Z,62.9
2023-03-20T04:53:41.987Z,62.8
2023-03-20T04:55:25.677Z,62.8
2023-03-20T04:57:09.393Z,62.8
2023-03-20T04:58:53.095Z,62.8
2023-03-20T05:00:36.975Z,62.8
2023-03-20T05:02:20.544Z,62.8
2023-03-20T05:04:04.203Z,62.8
2023-03-20T05:05:47.899Z,62.8
2023-03-20T05:07:31.619Z,62.8
2023-03-20T05:09:15.311Z,62.8
2023-03-20T05:10:59.011Z,62.8
2023-03-20T05:12:42.717Z,62.8
2023-03-20T05:14:26.423Z,62.8
2023-03-20T05:16:10.136Z,62.8
2023-03-20T05:17:53.817Z,62.8
2023-03-20T05:19:37.506Z,62.8
2023-03-20T05:21:21.261Z,62.7
2023-03-20T05:23:04.923Z,62.7
2023-03-20T05:24:48.622Z,62.7
2023-03-20T05:26:32.331Z,62.7
2023-03-20T05:28:16.034Z,62.7
2023-03-20T05:29:59.747Z,62.7
2023-03-20T05:31:43.447Z,62.7
2023-03-20T05:33:27.136Z,62.7
2023-03-20T05:35:10.849Z,62.7
2023-03-20T05:36:54.555Z,62.7
2023-03-20T05:38:38.250Z,62.7
2023-03-20T05:40:21.966Z,62.7
2023-03-20T05:42:05.649Z,62.7
2023-03-20T05:43:49.387Z,62.7
2023-03-20T05:45:33.052Z,62.7
2023-03-20T05:47:16.750Z,62.6
2023-03-20T05:50:44.174Z,62.6
2023-03-20T05:52:27.864Z,62.6
2023-03-20T05:54:11.575Z,62.6
2023-03-20T05:55:55.319Z,62.6
2023-03-20T05:57:39.065Z,62.6
2023-03-20T05:59:22.715Z,62.6
2023-03-20T06:01:06.392Z,62.6
2023-03-20T06:02:50.084Z,62.6
2023-03-20T06:04:33.807Z,62.6
2023-03-20T06:06:17.492Z,62.5
2023-03-20T06:08:01.193Z,62.6
2023-03-20T06:09:44.896Z,62.5
2023-03-20T06:11:28.591Z,62.5
2023-03-20T06:14:56.046Z,63.5
2023-03-20T06:16:39.701Z,63.6
2023-03-20T06:18:23.405Z,63.5
2023-03-20T06:20:07.110Z,63.4
2023-03-20T06:21:50.835Z,63.4
2023-03-20T06:23:34.517Z,63.3
2023-03-20T06:25:18.210Z,63.3
2023-03-20T06:27:01.926Z,63.3
2023-03-20T06:28:45.623Z,63.3
2023-03-20T06:30:29.362Z,63.5
2023-03-20T06:32:13.036Z,64.1
2023-03-20T06:33:56.728Z,65.3
2023-03-20T06:35:40.439Z,65.4
2023-03-20T06:37:24.136Z,65
2023-03-20T06:39:07.832Z,64.8
2023-03-20T06:40:51.584Z,64.8
2023-03-20T06:42:35.240Z,65
2023-03-20T06:44:18.931Z,64.9
2023-03-20T06:46:02.676Z,64.9
2023-03-20T06:47:46.423Z,64.9
2023-03-20T06:49:30.071Z,64.9
2023-03-20T06:51:13.756Z,64.9
2023-03-20T06:52:57.457Z,64.7
2023-03-20T06:54:41.150Z,64.6
2023-03-20T06:56:24.855Z,64.5
2023-03-20T06:58:08.559Z,64.5
2023-03-20T06:59:52.274Z,64.5
2023-03-20T07:01:35.966Z,64.4
2023-03-20T07:03:19.664Z,64.4
2023-03-20T07:05:03.371Z,64.1
2023-03-20T07:06:47.085Z,64.2
2023-03-20T07:08:30.774Z,64.2
2023-03-20T07:10:14.508Z,64.2
2023-03-20T07:11:58.185Z,64.1
2023-03-20T07:13:41.912Z,64.2
2023-03-20T07:15:25.611Z,64.1
2023-03-20T07:17:09.304Z,64.1
2023-03-20T07:18:53.002Z,64.2
2023-03-20T07:20:36.872Z,64.1
2023-03-20T07:22:20.454Z,64.1
2023-03-20T07:24:04.109Z,64.1
2023-03-20T07:25:47.872Z,64.1
2023-03-20T07:27:31.524Z,64.1
2023-03-20T07:29:15.225Z,64
2023-03-20T07:30:58.943Z,64
2023-03-20T07:32:42.634Z,63.9
2023-03-20T07:34:26.359Z,64
2023-03-20T07:36:10.027Z,63.8
2023-03-20T07:37:53.734Z,63.8
2023-03-20T07:39:37.447Z,63.5
2023-03-20T07:41:21.125Z,63.4
2023-03-20T07:43:04.839Z,63.4
2023-03-20T07:44:48.612Z,63.5
2023-03-20T07:46:32.244Z,63.5
2023-03-20T07:48:15.945Z,63.2
2023-03-20T07:49:59.702Z,63.2
2023-03-20T07:51:43.342Z,63.9
2023-03-20T07:53:27.054Z,64.3
2023-03-20T07:55:10.743Z,64.5
2023-03-20T07:56:54.526Z,64.6
2023-03-20T07:58:38.194Z,64.7
2023-03-20T08:00:21.870Z,64.7
2023-03-20T08:02:05.557Z,64.4
2023-03-20T08:03:49.277Z,64.3
2023-03-20T08:05:32.962Z,64.4
2023-03-20T08:07:16.676Z,64.4
2023-03-20T08:09:00.361Z,64.4
2023-03-20T08:10:44.133Z,64.3
2023-03-20T08:12:27.775Z,64.3
2023-03-20T08:14:11.520Z,64.2
2023-03-20T08:15:55.286Z,64.2
2023-03-20T08:17:38.952Z,64.2
2023-03-20T08:19:22.704Z,64.2
2023-03-20T08:21:06.327Z,64.1
2023-03-20T08:22:50.055Z,64.1
2023-03-20T08:26:17.397Z,64
2023-03-20T08:28:01.095Z,64
2023-03-20T08:29:44.810Z,63.9
2023-03-20T08:31:28.511Z,63.9
2023-03-20T08:33:12.272Z,63.9
2023-03-20T08:34:55.908Z,63.8
2023-03-20T08:36:39.689Z,63.8
2023-03-20T08:38:23.521Z,63.8
2023-03-20T08:40:07.020Z,63.8
2023-03-20T08:41:50.771Z,63.8
2023-03-20T08:43:34.448Z,63.9
2023-03-20T08:45:18.188Z,63.5
2023-03-20T08:47:01.976Z,63.2
2023-03-20T08:48:45.658Z,63
2023-03-20T08:50:29.304Z,62.9
2023-03-20T08:52:12.962Z,62.8
2023-03-20T08:53:56.686Z,63.1
2023-03-20T08:55:40.487Z,63.3
2023-03-20T08:57:24.036Z,63.3
2023-03-20T08:59:07.828Z,63.2
2023-03-20T09:00:51.448Z,63.2
2023-03-20T09:02:35.386Z,63.1
2023-03-20T09:04:18.930Z,63.1
2023-03-20T09:06:02.715Z,63
2023-03-20T09:07:46.321Z,63
2023-03-20T09:09:30.079Z,63
2023-03-20T09:11:13.410Z,63
2023-03-20T09:12:57.059Z,62.9
2023-03-20T09:14:40.892Z,63
2023-03-20T09:16:24.483Z,62.9
2023-03-20T09:18:08.158Z,62.8
2023-03-20T09:19:51.986Z,62.7
2023-03-20T09:21:35.585Z,62.7
2023-03-20T09:23:19.308Z,62.6
2023-03-20T09:25:02.973Z,62.6
2023-03-20T09:26:46.741Z,62.5
2023-03-20T09:28:30.380Z,62.4
2023-03-20T09:30:14.098Z,62.3
2023-03-20T09:31:57.791Z,62.2
2023-03-20T09:33:41.488Z,62.2
2023-03-20T09:35:25.218Z,62.2
2023-03-20T09:37:08.901Z,62.1
2023-03-20T09:38:52.602Z,62.1
2023-03-20T09:40:36.287Z,62
2023-03-20T09:42:20.016Z,62
2023-03-20T09:44:03.697Z,62
2023-03-20T09:45:47.403Z,62.1
2023-03-20T09:47:31.107Z,62.2
2023-03-20T09:49:14.810Z,62.2
2023-03-20T09:50:58.515Z,62.1
2023-03-20T09:52:42.221Z,62.1
2023-03-20T09:54:25.908Z,62
2023-03-20T09:56:09.624Z,61.9
2023-03-20T09:57:53.317Z,61.9
2023-03-20T09:59:37.025Z,61.8
2023-03-20T10:01:20.723Z,61.8
2023-03-20T10:03:04.447Z,61.8
2023-03-20T10:04:48.143Z,61.7
2023-03-20T10:06:31.828Z,61.7
2023-03-20T10:08:15.617Z,61.7
2023-03-20T10:09:59.426Z,61.6
2023-03-20T10:11:42.956Z,61.6
2023-03-20T10:13:26.778Z,61.6
2023-03-20T10:15:10.340Z,61.6
2023-03-20T10:16:54.052Z,61.6
2023-03-20T10:18:37.751Z,61.5
2023-03-20T10:20:21.452Z,61.4
2023-03-20T10:22:05.168Z,61.5
2023-03-20T10:23:48.864Z,61.4
2023-03-20T10:25:32.566Z,61.4
2023-03-20T10:27:16.262Z,61.4
2023-03-20T10:28:59.968Z,61.3
2023-03-20T10:30:43.656Z,61.3
2023-03-20T10:32:27.369Z,61.3
2023-03-20T10:34:11.062Z,61.3
2023-03-20T10:35:54.771Z,61.3
2023-03-20T10:37:38.478Z,61.3
2023-03-20T10:39:22.175Z,61.3
2023-03-20T10:41:05.895Z,61.3
2023-03-20T10:42:49.683Z,61.3
2023-03-20T10:44:33.468Z,61.3
2023-03-20T10:46:17.010Z,61.3
2023-03-20T10:48:00.700Z,61.3
2023-03-20T10:49:44.429Z,61.2
2023-03-20T10:51:28.145Z,61.2
2023-03-20T10:53:11.799Z,61.2
2023-03-20T10:54:55.493Z,61.2
2023-03-20T10:56:39.212Z,62.1
2023-03-20T10:58:22.903Z,63.4
2023-03-20T11:00:06.639Z,63.1
2023-03-20T11:01:50.434Z,62.5
2023-03-20T11:03:34.013Z,62.2
2023-03-20T11:05:17.727Z,62.2
2023-03-20T11:07:01.416Z,62.1
2023-03-20T11:08:45.129Z,62
2023-03-20T11:10:28.826Z,61.9
2023-03-20T11:12:12.524Z,61.9
2023-03-20T11:13:56.229Z,61.8
2023-03-20T11:15:39.935Z,61.8
2023-03-20T11:17:23.643Z,61.7
2023-03-20T11:19:07.346Z,61.7
2023-03-20T11:20:51.099Z,61.6
2023-03-20T11:22:34.757Z,61.6
2023-03-20T11:24:18.516Z,61.5
2023-03-20T11:26:02.159Z,61.4
2023-03-20T11:27:45.866Z,61.4
2023-03-20T11:29:29.671Z,61.3
2023-03-20T11:31:13.264Z,61.3
2023-03-20T11:32:56.996Z,61.3
2023-03-20T11:34:40.675Z,61.3
2023-03-20T11:36:24.368Z,61.2
2023-03-20T11:38:08.093Z,61.2
2023-03-20T11:39:51.769Z,61.2
2023-03-20T11:41:35.479Z,61.1
2023-03-20T11:43:19.285Z,61.1
2023-03-20T11:45:02.936Z,61.1
2023-03-20T11:46:46.583Z,61
2023-03-20T11:48:30.281Z,61
2023-03-20T11:50:14.068Z,61
2023-03-20T11:51:57.747Z,61
2023-03-20T11:53:41.400Z,61
2023-03-20T11:55:25.088Z,61
2023-03-20T11:57:08.832Z,60.9
2023-03-20T11:58:52.510Z,60.9
2023-03-20T12:00:36.203Z,60.9
2023-03-20T12:02:19.926Z,62.1
2023-03-20T12:04:03.619Z,63.6
2023-03-20T12:05:47.316Z,63.7
2023-03-20T12:07:31.008Z,63.7
2023-03-20T12:09:14.748Z,63.9
2023-03-20T12:10:58.476Z,63.8
2023-03-20T12:12:42.121Z,63.1
2023-03-20T12:14:25.817Z,62.8
2023-03-20T12:16:09.521Z,62.6
2023-03-20T12:17:53.224Z,62.3
2023-03-20T12:19:36.951Z,62.8
2023-03-20T12:21:20.631Z,63.5
2023-03-20T12:23:04.332Z,63.6
2023-03-20T12:24:48.045Z,63.5
2023-03-20T12:26:31.739Z,63.5
2023-03-20T12:28:15.441Z,63.5
2023-03-20T12:29:59.150Z,63.5
2023-03-20T12:31:42.860Z,63.6
2023-03-20T12:33:26.554Z,63.6
2023-03-20T12:35:10.253Z,63.6
2023-03-20T12:36:53.950Z,63.6
2023-03-20T12:38:37.672Z,63.5
2023-03-20T12:40:21.356Z,63.6
2023-03-20T12:42:05.059Z,63.9
2023-03-20T12:43:48.768Z,64.4
2023-03-20T12:45:32.463Z,64.3
2023-03-20T12:47:16.173Z,64
2023-03-20T12:48:59.878Z,64.2
2023-03-20T12:50:43.578Z,64.1
2023-03-20T12:52:27.314Z,64.1
2023-03-20T12:54:10.982Z,64.2
2023-03-20T12:55:54.684Z,64.3
2023-03-20T12:57:38.391Z,64.3
2023-03-20T13:01:05.832Z,64.3
2023-03-20T13:02:49.499Z,64.3
2023-03-20T13:04:33.203Z,64.2
2023-03-20T13:06:16.948Z,64.4
2023-03-20T13:08:00.600Z,64.5
2023-03-20T13:09:44.309Z,64.8
2023-03-20T13:11:28.006Z,64.7
2023-03-20T13:13:11.735Z,64.7
2023-03-20T13:14:55.413Z,64.9
2023-03-20T13:16:39.116Z,65
2023-03-20T13:18:22.809Z,65
2023-03-20T13:20:06.512Z,65.1
2023-03-20T13:21:50.219Z,65
2023-03-20T13:23:33.925Z,65
2023-03-20T13:25:17.628Z,64.9
2023-03-20T13:27:01.324Z,64.8
2023-03-20T13:28:45.033Z,64.8
2023-03-20T13:30:28.757Z,64.8
2023-03-20T13:32:12.450Z,64.7
2023-03-20T13:33:56.148Z,64.7
2023-03-20T13:35:39.846Z,64.7
2023-03-20T13:37:23.562Z,64.7
2023-03-20T13:39:07.266Z,64.8
2023-03-20T13:40:50.953Z,64.7
2023-03-20T13:42:34.651Z,64.7
2023-03-20T13:44:18.359Z,64.7
2023-03-20T13:46:02.064Z,64.7
2023-03-20T13:47:45.762Z,64.7
2023-03-20T13:49:29.476Z,64.7
2023-03-20T13:51:13.236Z,64.7
2023-03-20T13:52:56.869Z,64.7
2023-03-20T13:54:40.568Z,64.7
2023-03-20T13:56:24.278Z,64.7
2023-03-20T13:58:07.980Z,64.6
2023-03-20T13:59:51.687Z,64.6
2023-03-20T14:01:35.385Z,64.7
2023-03-20T14:03:19.167Z,64.7
2023-03-20T14:05:02.777Z,64.6
2023-03-20T14:06:46.495Z,64.7
2023-03-20T14:08:30.200Z,64.6
2023-03-20T14:10:13.894Z,64.5
2023-03-20T14:11:57.663Z,64.5
2023-03-20T14:13:41.307Z,64.5
2023-03-20T14:15:25.003Z,64.6
2023-03-20T14:17:08.715Z,64.6
2023-03-20T14:18:52.404Z,64.6
2023-03-20T14:20:36.144Z,64.6
2023-03-20T14:22:19.818Z,64.5
2023-03-20T14:24:03.519Z,64
2023-03-20T14:25:47.213Z,63.8
2023-03-20T14:27:30.946Z,64
2023-03-20T14:29:14.680Z,64.1
2023-03-20T14:30:58.332Z,64
2023-03-20T14:32:42.028Z,64.2
2023-03-20T14:34:25.732Z,64.5
2023-03-20T14:36:09.440Z,64.4
2023-03-20T14:39:36.849Z,64.5
2023-03-20T14:41:20.542Z,64.4
2023-03-20T14:43:04.413Z,64.4
2023-03-20T14:44:47.967Z,64.4
2023-03-20T14:46:31.647Z,64.3
2023-03-20T14:48:15.342Z,64.4
2023-03-20T14:49:59.050Z,64.5
2023-03-20T14:51:42.752Z,64.5
2023-03-20T14:53:26.459Z,64.5
2023-03-20T14:55:10.233Z,64.6
2023-03-20T14:56:53.926Z,64.6
2023-03-20T14:58:37.564Z,64.5
2023-03-20T15:00:21.264Z,64.5
2023-03-20T15:02:04.967Z,64.5
2023-03-20T15:03:48.667Z,64.5
2023-03-20T15:05:32.378Z,64.5
2023-03-20T15:07:16.073Z,64.5
2023-03-20T15:08:59.775Z,64.5
2023-03-20T15:10:43.489Z,64.3
2023-03-20T15:12:27.325Z,64.1
2023-03-20T15:14:10.894Z,64.3
2023-03-20T15:15:54.589Z,64.3
2023-03-20T15:17:38.331Z,64.3
2023-03-20T15:19:21.991Z,64.3
2023-03-20T15:21:05.691Z,64.2
2023-03-20T15:22:49.430Z,64.2
2023-03-20T15:24:33.107Z,64.2
2023-03-20T15:26:16.793Z,64.2
2023-03-20T15:28:00.522Z,64.1
2023-03-20T15:29:44.199Z,64.2
2023-03-20T15:31:27.909Z,64.2
2023-03-20T15:33:11.607Z,64.2
2023-03-20T15:34:55.318Z,64.3
2023-03-20T15:36:39.013Z,64.2
2023-03-20T15:38:22.723Z,64
2023-03-20T15:40:06.447Z,63.8
2023-03-20T15:41:50.206Z,63.6
2023-03-20T15:43:33.853Z,63.6
2023-03-20T15:45:17.520Z,63.8
2023-03-20T15:47:01.238Z,63.6
2023-03-20T15:48:44.929Z,63.7
2023-03-20T15:50:28.763Z,63.7
2023-03-20T15:52:12.384Z,63.8
2023-03-20T15:53:56.119Z,63.8
2023-03-20T15:55:39.806Z,63.8
2023-03-20T15:57:23.451Z,63.9
2023-03-20T15:59:07.151Z,63.9
2023-03-20T16:00:50.977Z,63.8
2023-03-20T16:02:34.676Z,64
2023-03-20T16:04:18.317Z,64
2023-03-20T16:06:01.991Z,63.7
2023-03-20T16:09:29.387Z,64
2023-03-20T16:11:13.098Z,64
2023-03-20T16:12:56.940Z,64
2023-03-20T16:14:40.472Z,63.9
2023-03-20T16:16:24.282Z,63.9
2023-03-20T16:18:07.873Z,63.8
2023-03-20T16:19:51.597Z,63.7
2023-03-20T16:21:35.300Z,63.7
2023-03-20T16:23:18.986Z,63.6
2023-03-20T16:25:02.803Z,63.5
2023-03-20T16:26:46.404Z,63.4
2023-03-20T16:28:30.119Z,63.4
2023-03-20T16:30:13.821Z,63.3
2023-03-20T16:31:57.499Z,63.3
2023-03-20T16:33:41.222Z,63.3
2023-03-20T16:35:24.986Z,63.3
2023-03-20T16:37:08.604Z,63.2
2023-03-20T16:38:52.298Z,63.2
2023-03-20T16:40:36.188Z,63.2
2023-03-20T16:42:19.713Z,62.9
2023-03-20T16:44:03.420Z,62.8
2023-03-20T16:45:47.111Z,62.9
2023-03-20T16:47:30.897Z,62.8
2023-03-20T16:49:14.524Z,62.8
2023-03-20T16:50:58.257Z,62.8
2023-03-20T16:52:41.926Z,62.8
2023-03-20T16:54:25.639Z,63
2023-03-20T16:56:09.338Z,63
2023-03-20T16:57:53.033Z,62.9
2023-03-20T16:59:36.741Z,63
2023-03-20T17:01:20.440Z,63.1
2023-03-20T17:03:04.150Z,63.1
2023-03-20T17:04:47.875Z,63.2
2023-03-20T17:06:31.540Z,63.3
2023-03-20T17:08:15.247Z,63.2
2023-03-20T17:09:58.951Z,63.2
2023-03-20T17:11:42.659Z,63.2
2023-03-20T17:13:26.359Z,63.3
2023-03-20T17:15:10.086Z,63.3
2023-03-20T17:16:53.752Z,63.3
2023-03-20T17:18:37.462Z,63.3
2023-03-20T17:20:21.163Z,63.3
2023-03-20T17:22:04.884Z,63.3
2023-03-20T17:23:48.566Z,63.3
2023-03-20T17:25:32.358Z,63.4
2023-03-20T17:27:16.043Z,63.3
2023-03-20T17:28:59.689Z,63.3
2023-03-20T17:30:43.400Z,59.4
2023-03-20T17:32:27.072Z,50
2023-03-20T17:34:10.785Z,52.2
2023-03-20T17:35:54.479Z,61.6
2023-03-20T17:37:38.188Z,63
2023-03-20T17:39:21.883Z,62.6
2023-03-20T17:41:05.601Z,62.3
2023-03-20T17:42:49.298Z,61.9
2023-03-20T17:44:33.030Z,60.7
2023-03-20T17:46:16.694Z,62.3
2023-03-20T17:48:00.398Z,62.1
2023-03-20T17:49:44.101Z,61.7
2023-03-20T17:51:27.807Z,61.4
2023-03-20T17:53:11.545Z,61.4
2023-03-20T17:54:55.212Z,61.7
2023-03-20T17:56:38.951Z,61.5
2023-03-20T17:58:22.608Z,61.5
2023-03-20T18:00:06.386Z,61.6
2023-03-20T18:01:50.041Z,61.9
2023-03-20T18:03:33.815Z,61.8
2023-03-20T18:05:17.508Z,61.8
2023-03-20T18:07:01.274Z,61.7
2023-03-20T18:08:44.882Z,61.7
2023-03-20T18:10:28.528Z,61.5
2023-03-20T18:12:12.235Z,61.5
2023-03-20T18:13:55.968Z,61.5
2023-03-20T18:15:39.646Z,61.4
2023-03-20T18:17:23.340Z,61.3
2023-03-20T18:19:07.043Z,61.3
2023-03-20T18:20:50.750Z,61.2
2023-03-20T18:22:34.589Z,61.2
2023-03-20T18:24:18.337Z,61.1
2023-03-20T18:26:02.013Z,61
2023-03-20T18:27:45.711Z,61
2023-03-20T18:29:29.260Z,60.9
2023-03-20T18:31:12.960Z,60.8
2023-03-20T18:32:56.667Z,53.5
2023-03-20T18:34:40.394Z,49.9
2023-03-20T18:36:24.095Z,55.3
2023-03-20T18:38:07.790Z,59.9
2023-03-20T18:39:51.505Z,59.8
2023-03-20T18:41:35.187Z,59.4
2023-03-20T18:43:18.888Z,59
2023-03-20T18:45:02.581Z,59.1
2023-03-20T18:46:46.292Z,59.1
2023-03-20T18:48:30.001Z,59
2023-03-20T18:50:13.689Z,59
2023-03-20T18:51:57.493Z,59
2023-03-20T18:55:24.800Z,59.3
2023-03-20T18:57:08.498Z,59.2
2023-03-20T18:58:52.224Z,59.3
2023-03-20T19:00:35.913Z,59.3
2023-03-20T19:02:19.657Z,59.5
2023-03-20T19:04:03.326Z,59.6
2023-03-20T19:05:47.088Z,59.6
2023-03-20T19:07:30.717Z,59.6
2023-03-20T19:09:14.418Z,59.7
2023-03-20T19:10:58.123Z,59.7
2023-03-20T19:12:41.828Z,59.9
2023-03-20T19:14:25.560Z,59.9
2023-03-20T19:16:09.227Z,60
2023-03-20T19:17:52.976Z,59.9
2023-03-20T19:19:36.641Z,60
2023-03-20T19:21:20.340Z,60.1
2023-03-20T19:23:04.052Z,60.1
2023-03-20T19:24:47.743Z,60.1
2023-03-20T19:26:31.454Z,60.1
2023-03-20T19:28:15.149Z,60.3
2023-03-20T19:29:58.851Z,60.3
2023-03-20T19:31:42.553Z,60.4
2023-03-20T19:33:26.256Z,60.4
2023-03-20T19:35:09.968Z,60.4
2023-03-20T19:36:53.659Z,60.5
2023-03-20T19:38:37.396Z,60.5
2023-03-20T19:40:21.082Z,60.5
2023-03-20T19:42:04.764Z,60.6
2023-03-20T19:43:48.479Z,60.6
2023-03-20T19:45:32.204Z,60.6
2023-03-20T19:47:15.876Z,60.6
2023-03-20T19:48:59.586Z,60.6
2023-03-20T19:50:43.275Z,60.6
2023-03-20T19:52:27.013Z,60.6
2023-03-20T19:54:10.683Z,60.6
2023-03-20T19:55:54.384Z,60.7
2023-03-20T19:57:38.090Z,60.7
2023-03-20T19:59:21.793Z,60.7
2023-03-20T20:01:05.665Z,60.7
2023-03-20T20:02:49.321Z,60.7
2023-03-20T20:04:33.091Z,60.6
2023-03-20T20:06:16.648Z,60.8
2023-03-20T20:08:00.297Z,60.8
2023-03-20T20:09:44.008Z,60.8
2023-03-20T20:11:27.701Z,60.9
2023-03-20T20:13:11.401Z,60.8
2023-03-20T20:14:55.108Z,60.6
2023-03-20T20:16:38.963Z,60.5
2023-03-20T20:18:22.613Z,60.4
2023-03-20T20:20:06.258Z,60.4
2023-03-20T20:21:49.921Z,60.4
2023-03-20T20:23:33.619Z,60.4
2023-03-20T20:25:17.307Z,60.5
2023-03-20T20:27:01.084Z,60.6
2023-03-20T20:28:44.778Z,60.5
2023-03-20T20:30:28.484Z,60.6
2023-03-20T20:32:12.130Z,60.6
2023-03-20T20:33:55.836Z,60.6
2023-03-20T20:35:39.528Z,60.6
2023-03-20T20:37:23.246Z,60.6
2023-03-20T20:39:06.936Z,60.6
2023-03-20T20:40:50.658Z,60.5
2023-03-20T20:42:34.351Z,60.6
2023-03-20T20:44:18.090Z,60.6
2023-03-20T20:46:01.940Z,60.6
2023-03-20T20:47:45.642Z,60.6
2023-03-20T20:49:29.166Z,60.6
2023-03-20T20:51:12.888Z,60.8
2023-03-20T20:52:56.583Z,60.8
2023-03-20T20:54:40.273Z,60.8
2023-03-20T20:56:23.979Z,61
2023-03-20T20:58:07.680Z,61
2023-03-20T20:59:51.539Z,61
2023-03-20T21:01:35.087Z,61
2023-03-20T21:03:18.783Z,61
2023-03-20T21:05:02.491Z,61
2023-03-20T21:06:46.201Z,61
2023-03-20T21:08:29.893Z,60.9
2023-03-20T21:10:13.609Z,60.9
2023-03-20T21:11:57.306Z,60.8
2023-03-20T21:13:41.005Z,60.7
2023-03-20T21:15:24.757Z,60.7
2023-03-20T21:17:08.412Z,60.8
2023-03-20T21:18:52.111Z,60.8
2023-03-20T21:20:35.822Z,60.8
2023-03-20T21:22:19.507Z,60.9
2023-03-20T21:24:03.221Z,60.9
2023-03-20T21:25:46.928Z,60.9
2023-03-20T21:27:30.627Z,60.9
2023-03-20T21:29:14.326Z,60.9
2023-03-20T21:30:58.025Z,61.1
2023-03-20T21:32:41.738Z,61.3
2023-03-20T21:34:25.428Z,61.3
2023-03-20T21:36:09.135Z,61.3
2023-03-20T21:37:52.846Z,61.3
2023-03-20T21:39:36.549Z,62
2023-03-20T21:41:20.233Z,63
2023-03-20T21:43:03.943Z,63.6
2023-03-20T21:44:47.659Z,63.4
2023-03-20T21:46:31.352Z,63.3
2023-03-20T21:48:15.064Z,63.2
2023-03-20T21:49:58.772Z,63.3
2023-03-20T21:51:42.452Z,63.4
2023-03-20T21:53:26.162Z,63.5
2023-03-20T21:55:09.868Z,63.5
2023-03-20T21:56:53.566Z,63.6
2023-03-20T21:58:37.276Z,63.7
2023-03-20T22:00:20.977Z,63.6
2023-03-20T22:02:04.677Z,63.8
2023-03-20T22:03:48.389Z,63.8
2023-03-20T22:05:32.098Z,63.8
2023-03-20T22:07:15.780Z,63.8
2023-03-20T22:08:59.484Z,63.8
2023-03-20T22:10:43.219Z,63.8
2023-03-20T22:12:26.898Z,63.9
2023-03-20T22:14:10.599Z,63.9
2023-03-20T22:15:54.302Z,63.9
2023-03-20T22:17:37.997Z,64
2023-03-20T22:19:21.690Z,64
2023-03-20T22:21:05.401Z,64
2023-03-20T22:22:49.107Z,64
2023-03-20T22:24:32.805Z,63.9
2023-03-20T22:26:16.512Z,64
2023-03-20T22:28:00.213Z,63.9
2023-03-20T22:29:43.915Z,63.8
2023-03-20T22:31:27.623Z,63.9
2023-03-20T22:33:11.317Z,64
2023-03-20T22:34:55.029Z,63.9
2023-03-20T22:36:38.731Z,63.9
2023-03-20T22:38:22.425Z,63.9
2023-03-20T22:40:06.131Z,63.9
2023-03-20T22:41:49.835Z,63.9
2023-03-20T22:43:33.539Z,63.6
2023-03-20T22:45:17.245Z,63.4
2023-03-20T22:47:00.939Z,63.3
2023-03-20T22:48:44.666Z,63.2
2023-03-20T22:50:28.345Z,63.5
2023-03-20T22:52:12.055Z,64.3
2023-03-20T22:53:55.752Z,64.3
2023-03-20T22:55:39.454Z,64.3
2023-03-20T22:57:23.182Z,64.4
2023-03-20T22:59:06.858Z,64.4
2023-03-20T23:00:50.558Z,64.4
2023-03-20T23:02:34.276Z,64.4
2023-03-20T23:04:17.963Z,64.5
2023-03-20T23:06:01.690Z,64.3
2023-03-20T23:07:45.369Z,64.2
2023-03-20T23:09:29.078Z,64.1
2023-03-20T23:11:12.774Z,64.2
2023-03-20T23:12:56.480Z,64.5
2023-03-20T23:14:40.189Z,64.4
2023-03-20T23:16:23.886Z,64.4
2023-03-20T23:18:07.586Z,64.3
2023-03-20T23:19:51.286Z,64.4
2023-03-20T23:21:35.016Z,64.4
2023-03-20T23:23:18.702Z,64.4
2023-03-20T23:25:02.394Z,64.4
2023-03-20T23:26:46.108Z,64.4
2023-03-20T23:28:29.812Z,64.5
2023-03-20T23:30:13.507Z,64.6
2023-03-20T23:31:57.217Z,64.6
2023-03-20T23:33:40.917Z,64.5